KLFT/LFT METAR and TAF weather

Enter ICAO airport designator
Station Type Date Time Source
KLFT METAR 2019/06/16 19:53 UTC NOAA

KLFT 161953Z AUTO 21009G17KT 10SM FEW043 33/24 A2995 RMK AO2 SLP140 T03280239


Station Type Date Time Source
KLFT Decoded METAR 2019/06/16 19:53 UTC NOAA

LAFAYETTE REGIONAL AIRPORT, LA, United States (KLFT) 30-12N 092-00W 11M
Jun 16, 2019 - 03:53 PM EDT / 2019.06.16 1953 UTC
Wind: from the SSW (210 degrees) at 10 MPH (9 KT) gusting to 20 MPH (17 KT):0
Visibility: 10 mile(s):0
Sky conditions: mostly clear
Temperature: 91.0 F (32.8 C)
Heat index: 101.5 F (38.6 C):1
Dew Point: 75.0 F (23.9 C)
Relative Humidity: 59%
Pressure (altimeter): 29.95 in. Hg (1014 hPa)
ob: KLFT 161953Z AUTO 21009G17KT 10SM FEW043 33/24 A2995 RMK AO2 SLP140 T03280239
cycle: 20

Station Type Date Time Source
KLFT TAF 2019/06/16 18:22 UTC NOAA

TAF KLFT 161720Z 1618/1718 19009KT P6SM FEW200
TEMPO 1618/1619 BKN026
FM170600 17004KT P6SM BKN180
FM171100 17003KT P6SM BKN150 PROB30 1712/1718 4SM TSRA OVC009CB

Example: see airport list